createdAt,value
2018-01-15T00:01:10.241Z,16.93
2018-01-15T00:03:37.929Z,18.00
2018-01-15T00:06:05.572Z,14.83
2018-01-15T00:08:33.160Z,23.20
2018-01-15T00:11:00.714Z,15.07
2018-01-15T00:13:28.577Z,17.27
2018-01-15T00:15:56.181Z,15.17
2018-01-15T00:18:23.799Z,11.07
2018-01-15T00:20:51.406Z,15.10
2018-01-15T00:23:19.071Z,19.83
2018-01-15T00:25:46.730Z,16.53
2018-01-15T00:28:14.351Z,14.83
2018-01-15T00:30:41.987Z,14.50
2018-01-15T00:33:10.507Z,15.13
2018-01-15T00:35:38.140Z,14.23
2018-01-15T00:38:05.959Z,16.13
2018-01-15T00:40:33.688Z,15.53
2018-01-15T00:43:01.331Z,12.83
2018-01-15T00:45:29.056Z,17.70
2018-01-15T00:47:56.730Z,16.00
2018-01-15T00:50:24.668Z,16.13
2018-01-15T00:52:52.545Z,19.83
2018-01-15T00:55:20.718Z,16.37
2018-01-15T00:57:48.405Z,18.40
2018-01-15T01:00:16.134Z,17.00
2018-01-15T01:02:43.701Z,15.80
2018-01-15T01:05:12.202Z,16.77
2018-01-15T01:07:39.775Z,20.50
2018-01-15T01:10:07.361Z,21.13
2018-01-15T01:12:34.992Z,17.77
2018-01-15T01:15:02.571Z,13.57
2018-01-15T01:17:30.143Z,17.87
2018-01-15T01:19:57.759Z,17.13
2018-01-15T01:22:25.352Z,19.33
2018-01-15T01:24:52.985Z,17.97
2018-01-15T01:27:20.770Z,18.40
2018-01-15T01:29:50.187Z,20.43
2018-01-15T01:32:17.775Z,22.00
2018-01-15T01:34:45.402Z,21.10
2018-01-15T01:37:14.029Z,16.50
2018-01-15T01:39:41.666Z,15.90
2018-01-15T01:42:09.275Z,18.00
2018-01-15T01:44:37.165Z,16.07
2018-01-15T01:47:04.978Z,15.40
2018-01-15T01:49:32.666Z,16.73
2018-01-15T01:52:00.255Z,19.27
2018-01-15T01:54:27.856Z,15.20
2018-01-15T01:56:55.430Z,18.73
2018-01-15T01:59:23.079Z,16.63
2018-01-15T02:01:50.845Z,18.23
2018-01-15T02:04:18.500Z,21.00
2018-01-15T02:06:46.331Z,17.23
2018-01-15T02:09:14.028Z,15.47
2018-01-15T02:11:42.163Z,16.53
2018-01-15T02:14:09.767Z,17.70
2018-01-15T02:16:37.508Z,20.90
2018-01-15T02:19:05.125Z,19.77
2018-01-15T02:21:32.748Z,16.97
2018-01-15T02:24:00.681Z,17.83
2018-01-15T02:26:28.250Z,17.17
2018-01-15T02:28:55.891Z,19.60
2018-01-15T02:31:23.970Z,16.93
2018-01-15T02:33:51.674Z,18.50
2018-01-15T02:36:19.260Z,19.17
2018-01-15T02:38:47.104Z,19.30
2018-01-15T02:41:14.733Z,20.50
2018-01-15T02:43:42.320Z,21.17
2018-01-15T02:46:10.204Z,22.57
2018-01-15T02:48:37.795Z,16.37
2018-01-15T02:51:05.512Z,17.23
2018-01-15T02:53:33.101Z,15.73
2018-01-15T02:56:00.738Z,22.80
2018-01-15T02:58:28.431Z,28.70
2018-01-15T03:00:56.208Z,19.33
2018-01-15T03:03:23.856Z,18.87
2018-01-15T03:05:51.456Z,17.07
2018-01-15T03:08:19.176Z,18.47
2018-01-15T03:10:46.981Z,19.13
2018-01-15T03:13:15.039Z,140.30
2018-01-15T03:15:43.034Z,25.30
2018-01-15T03:18:10.766Z,18.97
2018-01-15T03:20:38.478Z,20.97
2018-01-15T03:23:07.906Z,23.57
2018-01-15T03:25:37.163Z,34.20
2018-01-15T03:28:04.812Z,126.43
2018-01-15T03:30:32.471Z,109.20
2018-01-15T03:33:00.114Z,45.23
2018-01-15T03:35:28.242Z,21.30
2018-01-15T03:37:56.630Z,23.40
2018-01-15T03:40:24.303Z,26.10
2018-01-15T03:42:52.056Z,19.70
2018-01-15T03:45:20.025Z,18.23
2018-01-15T03:47:47.661Z,22.27
2018-01-15T03:50:15.658Z,24.17
2018-01-15T03:52:43.317Z,26.93
2018-01-15T03:55:12.283Z,26.33
2018-01-15T03:57:39.885Z,27.40
2018-01-15T04:00:07.499Z,30.60
2018-01-15T04:02:35.140Z,19.27
2018-01-15T04:05:02.763Z,16.17
2018-01-15T04:07:30.594Z,19.30
2018-01-15T04:09:58.305Z,29.53
2018-01-15T04:12:25.901Z,17.53
2018-01-15T04:14:53.860Z,19.97
2018-01-15T04:17:29.296Z,19.80
2018-01-15T04:19:57.825Z,17.33
2018-01-15T04:22:25.576Z,16.53
2018-01-15T04:24:53.254Z,21.90
2018-01-15T04:27:21.022Z,19.43
2018-01-15T04:29:48.636Z,22.83
2018-01-15T04:32:16.349Z,18.20
2018-01-15T04:34:44.016Z,25.03
2018-01-15T04:39:45.061Z,21.03
2018-01-15T04:42:12.631Z,21.53
2018-01-15T04:44:40.221Z,23.60
2018-01-15T04:47:08.467Z,38.60
2018-01-15T04:49:36.148Z,30.37
2018-01-15T04:52:03.726Z,31.87
2018-01-15T04:54:31.583Z,34.10
2018-01-15T04:56:59.258Z,22.23
2018-01-15T04:59:26.875Z,24.20
2018-01-15T05:01:54.817Z,27.47
2018-01-15T05:04:23.292Z,29.10
2018-01-15T05:06:50.912Z,32.07
2018-01-15T05:09:18.522Z,39.90
2018-01-15T05:11:46.227Z,31.90
2018-01-15T05:14:14.024Z,33.07
2018-01-15T05:16:41.638Z,26.40
2018-01-15T05:19:10.173Z,18.70
2018-01-15T05:21:37.771Z,19.43
2018-01-15T05:24:05.481Z,18.60
2018-01-15T05:26:33.230Z,24.53
2018-01-15T05:29:01.613Z,28.20
2018-01-15T05:31:29.538Z,29.07
2018-01-15T05:33:57.133Z,28.80
2018-01-15T05:36:25.360Z,23.50
2018-01-15T05:38:53.295Z,26.30
2018-01-15T05:41:20.881Z,23.00
2018-01-15T05:43:48.664Z,17.63
2018-01-15T05:46:16.606Z,19.77
2018-01-15T05:48:44.240Z,19.60
2018-01-15T05:51:12.061Z,19.67
2018-01-15T05:53:39.672Z,15.77
2018-01-15T05:56:07.277Z,18.27
2018-01-15T05:58:35.130Z,20.80
2018-01-15T06:01:02.739Z,20.00
2018-01-15T06:03:30.323Z,23.77
2018-01-15T06:05:57.928Z,24.27
2018-01-15T06:08:25.534Z,20.67
2018-01-15T06:10:53.159Z,24.53
2018-01-15T06:13:20.804Z,23.67
2018-01-15T06:15:48.388Z,20.50
2018-01-15T06:18:16.041Z,27.53
2018-01-15T06:20:43.676Z,19.93
2018-01-15T06:23:12.185Z,24.27
2018-01-15T06:25:39.961Z,17.93
2018-01-15T06:28:07.538Z,23.10
2018-01-15T06:30:35.136Z,22.43
2018-01-15T06:33:02.871Z,20.40
2018-01-15T06:35:30.445Z,19.43
2018-01-15T06:37:58.045Z,17.80
2018-01-15T06:40:25.688Z,22.77
2018-01-15T06:42:53.289Z,22.40
2018-01-15T06:45:21.033Z,18.30
2018-01-15T06:47:48.690Z,26.50
2018-01-15T06:50:16.290Z,28.73
2018-01-15T06:52:43.905Z,22.43
2018-01-15T06:55:11.748Z,28.90
2018-01-15T06:57:39.359Z,23.30
2018-01-15T07:00:07.183Z,25.77
2018-01-15T07:02:34.868Z,30.20
2018-01-15T07:05:02.532Z,29.40
2018-01-15T07:07:31.115Z,28.07
2018-01-15T07:09:58.932Z,30.07
2018-01-15T07:12:26.533Z,39.43
2018-01-15T07:14:54.639Z,30.97
2018-01-15T07:17:23.230Z,26.27
2018-01-15T07:19:51.433Z,35.73
2018-01-15T07:22:19.840Z,31.87
2018-01-15T07:24:47.520Z,34.87
2018-01-15T07:27:15.117Z,46.93
2018-01-15T07:29:42.740Z,115.77
2018-01-15T07:32:10.318Z,93.97
2018-01-15T07:34:37.932Z,77.20
2018-01-15T07:37:05.750Z,58.67
2018-01-15T07:39:33.426Z,54.27
2018-01-15T07:42:01.098Z,58.20
2018-01-15T07:44:28.710Z,55.90
2018-01-15T07:46:56.321Z,49.23
2018-01-15T07:49:24.192Z,46.80
2018-01-15T07:51:51.790Z,48.13
2018-01-15T07:54:19.495Z,44.93
2018-01-15T07:56:47.064Z,44.37
2018-01-15T07:59:14.699Z,47.70
2018-01-15T08:01:42.513Z,41.67
2018-01-15T08:04:10.121Z,44.90
2018-01-15T08:06:37.715Z,38.93
2018-01-15T08:09:06.807Z,31.03
2018-01-15T08:11:34.704Z,20.60
2018-01-15T08:14:02.286Z,21.07
2018-01-15T08:16:29.901Z,26.00
2018-01-15T08:18:57.479Z,19.20
2018-01-15T08:21:25.303Z,26.37
2018-01-15T08:23:52.943Z,22.37
2018-01-15T08:26:20.608Z,20.07
2018-01-15T08:28:48.234Z,20.40
2018-01-15T08:31:15.846Z,20.40
2018-01-15T08:33:43.791Z,23.50
2018-01-15T08:36:11.719Z,19.47
2018-01-15T08:38:39.337Z,26.20
2018-01-15T08:41:07.139Z,18.20
2018-01-15T08:43:35.383Z,26.13
2018-01-15T08:46:02.982Z,26.27
2018-01-15T08:48:30.554Z,27.80
2018-01-15T08:50:58.543Z,35.37
2018-01-15T08:53:26.224Z,31.23
2018-01-15T08:55:53.789Z,21.20
2018-01-15T08:58:21.799Z,22.20
2018-01-15T09:00:49.841Z,26.93
2018-01-15T09:03:17.668Z,33.50
2018-01-15T09:05:45.265Z,27.33
2018-01-15T09:08:12.821Z,24.53
2018-01-15T09:10:40.430Z,23.30
2018-01-15T09:13:08.362Z,21.60
2018-01-15T09:15:35.952Z,19.60
2018-01-15T09:18:03.844Z,21.33
2018-01-15T09:20:31.827Z,21.50
2018-01-15T09:22:59.428Z,19.93
2018-01-15T09:25:27.773Z,64.47
2018-01-15T09:27:55.454Z,25.57
2018-01-15T09:30:23.050Z,26.37
2018-01-15T09:32:50.636Z,25.37
2018-01-15T09:35:18.243Z,24.00
2018-01-15T09:37:45.830Z,26.97
2018-01-15T09:40:14.002Z,20.33
2018-01-15T09:42:41.558Z,28.90
2018-01-15T09:45:09.883Z,22.60
2018-01-15T09:47:37.549Z,17.00
2018-01-15T09:50:05.153Z,22.30
2018-01-15T09:52:32.812Z,14.77
2018-01-15T09:55:00.453Z,21.30
2018-01-15T09:57:28.182Z,20.50
2018-01-15T09:59:55.810Z,23.43
2018-01-15T10:02:23.813Z,23.37
2018-01-15T10:04:51.457Z,21.00
2018-01-15T10:07:19.417Z,22.07
2018-01-15T10:09:47.100Z,19.17
2018-01-15T10:12:14.738Z,21.03
2018-01-15T10:14:42.342Z,22.00
2018-01-15T10:17:10.860Z,23.53
2018-01-15T10:19:38.517Z,20.40
2018-01-15T10:22:06.090Z,19.10
2018-01-15T10:24:33.668Z,17.27
2018-01-15T10:27:01.282Z,14.70
2018-01-15T10:29:30.108Z,18.33
2018-01-15T10:31:57.722Z,25.07
2018-01-15T10:34:25.325Z,17.97
2018-01-15T10:36:52.897Z,16.10
2018-01-15T10:39:20.463Z,17.17
2018-01-15T10:41:48.088Z,16.17
2018-01-15T10:47:05.970Z,26.87
2018-01-15T10:49:33.545Z,24.13
2018-01-15T10:52:02.204Z,19.23
2018-01-15T10:54:30.704Z,20.27
2018-01-15T10:56:58.328Z,21.90
2018-01-15T10:59:25.914Z,26.43
2018-01-15T11:01:53.993Z,16.87
2018-01-15T11:04:21.709Z,13.87
2018-01-15T11:06:51.100Z,14.33
2018-01-15T11:09:19.189Z,15.30
2018-01-15T11:11:46.770Z,20.80
2018-01-15T11:14:18.004Z,22.80
2018-01-15T11:16:45.672Z,31.17
2018-01-15T11:19:13.320Z,22.07
2018-01-15T11:21:40.918Z,17.70
2018-01-15T11:24:10.492Z,14.93
2018-01-15T11:26:38.266Z,15.83
2018-01-15T11:29:06.555Z,16.90
2018-01-15T11:31:34.318Z,16.63
2018-01-15T11:34:02.078Z,15.73
2018-01-15T11:36:29.732Z,18.03
2018-01-15T11:38:57.303Z,17.53
2018-01-15T11:41:24.844Z,18.50
2018-01-15T11:43:53.428Z,13.90
2018-01-15T11:46:21.138Z,15.13
2018-01-15T11:48:48.689Z,18.40
2018-01-15T11:51:16.817Z,17.60
2018-01-15T11:53:44.421Z,12.43
2018-01-15T11:56:12.003Z,15.00
2018-01-15T11:58:39.597Z,17.57
2018-01-15T12:01:08.741Z,16.40
2018-01-15T12:03:36.318Z,12.10
2018-01-15T12:06:03.884Z,15.40
2018-01-15T12:08:31.484Z,15.80
2018-01-15T12:10:59.077Z,15.47
2018-01-15T12:13:26.790Z,15.90
2018-01-15T12:15:54.343Z,12.80
2018-01-15T12:18:22.081Z,14.00
2018-01-15T12:20:49.632Z,13.30
2018-01-15T12:23:17.306Z,14.20
2018-01-15T12:25:44.956Z,16.83
2018-01-15T12:28:12.697Z,15.13
2018-01-15T12:30:40.292Z,18.90
2018-01-15T12:33:08.293Z,20.93
2018-01-15T12:35:37.045Z,12.43
2018-01-15T12:38:04.619Z,14.70
2018-01-15T12:40:32.208Z,25.10
2018-01-15T12:42:59.789Z,23.67
2018-01-15T12:45:27.530Z,33.70
2018-01-15T12:47:55.107Z,18.13
2018-01-15T12:50:22.715Z,16.70
2018-01-15T12:52:50.315Z,23.80
2018-01-15T12:55:17.896Z,19.17
2018-01-15T12:57:45.464Z,17.43
2018-01-15T13:00:13.002Z,30.50
2018-01-15T13:02:40.602Z,21.37
2018-01-15T13:05:08.491Z,15.43
2018-01-15T13:07:47.762Z,33.03
2018-01-15T13:10:15.329Z,21.07
2018-01-15T13:12:42.991Z,25.90
2018-01-15T13:15:11.264Z,20.57
2018-01-15T13:17:39.802Z,13.60
2018-01-15T13:20:07.387Z,26.60
2018-01-15T13:22:34.974Z,20.47
2018-01-15T13:25:02.533Z,19.33
2018-01-15T13:27:31.275Z,18.10
2018-01-15T13:29:58.856Z,15.67
2018-01-15T13:32:26.460Z,21.03
2018-01-15T13:34:54.045Z,18.00
2018-01-15T13:37:21.622Z,18.13
2018-01-15T13:39:49.214Z,16.77
2018-01-15T13:42:16.821Z,16.50
2018-01-15T13:44:44.420Z,14.47
2018-01-15T13:47:12.486Z,18.37
2018-01-15T13:49:40.131Z,15.13
2018-01-15T13:52:07.771Z,14.90
2018-01-15T13:54:35.384Z,13.47
2018-01-15T13:57:03.029Z,14.13
2018-01-15T13:59:30.585Z,15.50
2018-01-15T14:01:58.140Z,19.93
2018-01-15T14:04:25.771Z,15.93
2018-01-15T14:06:53.357Z,14.60
2018-01-15T14:09:21.013Z,18.30
2018-01-15T14:11:48.627Z,15.20
2018-01-15T14:14:16.199Z,14.93
2018-01-15T14:16:43.776Z,23.57
2018-01-15T14:19:11.993Z,29.33
2018-01-15T14:21:39.570Z,36.60
2018-01-15T14:24:07.228Z,28.13
2018-01-15T14:26:34.841Z,30.90
2018-01-15T14:29:02.486Z,23.90
2018-01-15T14:31:30.039Z,26.53
2018-01-15T14:33:58.103Z,40.10
2018-01-15T14:36:25.697Z,31.10
2018-01-15T14:38:53.405Z,27.57
2018-01-15T14:41:20.951Z,28.20
2018-01-15T14:43:48.535Z,22.40
2018-01-15T14:46:16.162Z,19.30
2018-01-15T14:48:43.794Z,33.03
2018-01-15T14:51:11.475Z,23.27
2018-01-15T14:53:39.441Z,23.40
2018-01-15T14:56:07.037Z,23.07
2018-01-15T14:58:34.620Z,16.40
2018-01-15T15:01:02.274Z,15.27
2018-01-15T15:03:29.893Z,23.17
2018-01-15T15:06:00.278Z,25.07
2018-01-15T15:11:02.111Z,48.47
2018-01-15T15:13:29.736Z,37.50
2018-01-15T15:15:57.416Z,33.10
2018-01-15T15:18:25.319Z,24.20
2018-01-15T15:20:52.944Z,33.43
2018-01-15T15:23:20.565Z,22.17
2018-01-15T15:25:48.262Z,22.90
2018-01-15T15:28:21.278Z,32.87
2018-01-15T15:30:49.203Z,34.57
2018-01-15T15:33:17.355Z,20.13
2018-01-15T15:35:45.050Z,22.13
2018-01-15T15:38:13.174Z,28.20
2018-01-15T15:40:40.821Z,30.67
2018-01-15T15:43:10.779Z,27.20
2018-01-15T15:45:38.473Z,27.93
2018-01-15T15:48:09.060Z,36.23
2018-01-15T15:50:36.839Z,32.50
2018-01-15T15:53:06.510Z,27.37
2018-01-15T15:55:34.476Z,45.37
2018-01-15T15:58:02.770Z,77.93
2018-01-15T16:00:30.479Z,39.00
2018-01-15T16:02:58.208Z,38.63
2018-01-15T16:05:25.953Z,45.70
2018-01-15T16:07:53.601Z,50.80
2018-01-15T16:10:21.360Z,28.60
2018-01-15T16:12:48.961Z,26.27
2018-01-15T16:15:16.585Z,24.17
2018-01-15T16:17:44.230Z,18.10
2018-01-15T16:20:11.922Z,19.63
2018-01-15T16:22:51.690Z,25.30
2018-01-15T16:25:19.328Z,23.77
2018-01-15T16:27:46.970Z,44.97
2018-01-15T16:30:14.592Z,82.40
2018-01-15T16:32:49.867Z,83.63
2018-01-15T16:35:17.659Z,75.80
2018-01-15T16:37:45.253Z,80.60
2018-01-15T16:40:12.956Z,54.80
2018-01-15T16:42:40.581Z,56.93
2018-01-15T16:45:08.592Z,38.53
2018-01-15T16:47:36.202Z,28.90
2018-01-15T16:50:09.414Z,35.73
2018-01-15T16:52:37.098Z,20.40
2018-01-15T16:57:55.054Z,53.97
2018-01-15T17:00:22.646Z,41.43
2018-01-15T17:02:50.302Z,29.57
2018-01-15T17:05:18.309Z,43.10
2018-01-15T17:07:45.868Z,43.20
2018-01-15T17:10:14.051Z,60.40
2018-01-15T17:12:41.665Z,62.77
2018-01-15T17:15:09.973Z,67.53
2018-01-15T17:17:38.060Z,47.10
2018-01-15T17:20:05.766Z,27.33
2018-01-15T17:22:33.363Z,53.03
2018-01-15T17:25:00.971Z,31.63
2018-01-15T17:27:28.599Z,26.47
2018-01-15T17:29:56.214Z,23.77
2018-01-15T17:32:24.502Z,22.23
2018-01-15T17:34:52.105Z,25.17
2018-01-15T17:37:19.708Z,27.50
2018-01-15T17:39:47.314Z,34.00
2018-01-15T17:42:14.921Z,26.03
2018-01-15T17:44:42.510Z,27.23
2018-01-15T17:47:10.885Z,22.00
2018-01-15T17:49:38.491Z,17.37
2018-01-15T17:52:06.127Z,27.57
2018-01-15T17:54:33.719Z,29.43
2018-01-15T17:57:01.667Z,24.17
2018-01-15T17:59:29.286Z,22.40
2018-01-15T18:01:56.867Z,19.90
2018-01-15T18:04:25.038Z,19.67
2018-01-15T18:06:52.895Z,25.03
2018-01-15T18:09:20.750Z,24.23
2018-01-15T18:11:48.302Z,21.20
2018-01-15T18:14:16.225Z,25.47
2018-01-15T18:16:43.828Z,25.07
2018-01-15T18:19:11.929Z,26.27
2018-01-15T18:21:39.821Z,20.83
2018-01-15T18:24:07.489Z,23.17
2018-01-15T18:26:35.095Z,25.33
2018-01-15T18:29:02.658Z,20.03
2018-01-15T18:31:30.245Z,22.80
2018-01-15T18:33:57.821Z,22.40
2018-01-15T18:36:26.003Z,31.03
2018-01-15T18:38:53.582Z,33.93
2018-01-15T18:41:21.192Z,39.77
2018-01-15T18:43:48.785Z,30.37
2018-01-15T18:46:16.430Z,38.00
2018-01-15T18:48:44.088Z,32.27
2018-01-15T18:51:12.027Z,49.57
2018-01-15T18:53:39.626Z,38.23
2018-01-15T18:56:07.218Z,36.00
2018-01-15T18:58:34.800Z,30.37
2018-01-15T19:01:02.409Z,34.33
2018-01-15T19:03:30.113Z,29.20
2018-01-15T19:05:58.547Z,31.93
2018-01-15T19:08:26.221Z,32.13
2018-01-15T19:10:54.555Z,34.30
2018-01-15T19:13:22.157Z,31.27
2018-01-15T19:15:49.824Z,30.10
2018-01-15T19:18:17.509Z,30.70
2018-01-15T19:20:45.101Z,36.67
2018-01-15T19:23:12.700Z,32.77
2018-01-15T19:25:40.356Z,31.47
2018-01-15T19:28:07.993Z,27.47
2018-01-15T19:30:38.411Z,33.13
2018-01-15T19:33:06.116Z,34.67
2018-01-15T19:38:36.987Z,37.63
2018-01-15T19:41:04.628Z,44.23
2018-01-15T19:43:36.732Z,44.33
2018-01-15T19:46:09.987Z,27.93
2018-01-15T19:48:45.633Z,28.37
2018-01-15T19:51:18.836Z,25.10
2018-01-15T19:53:51.940Z,31.83
2018-01-15T19:59:15.417Z,26.60
2018-01-15T20:01:48.522Z,34.33
2018-01-15T20:04:21.577Z,44.20
2018-01-15T20:06:54.717Z,29.60
2018-01-15T20:09:28.512Z,44.80
2018-01-15T20:11:56.177Z,48.87
2018-01-15T20:14:24.715Z,42.67
2018-01-15T20:16:52.713Z,41.70
2018-01-15T20:19:20.579Z,37.30
2018-01-15T20:21:48.377Z,37.60
2018-01-15T20:24:15.979Z,33.43
2018-01-15T20:26:43.714Z,36.00
2018-01-15T20:29:11.318Z,29.43
2018-01-15T20:31:38.928Z,35.37
2018-01-15T20:34:06.587Z,38.20
2018-01-15T20:36:34.154Z,32.40
2018-01-15T20:39:01.741Z,52.17
2018-01-15T20:41:29.344Z,53.53
2018-01-15T20:43:56.932Z,32.67
2018-01-15T20:46:24.507Z,30.50
2018-01-15T20:48:52.144Z,24.83
2018-01-15T20:51:19.770Z,30.73
2018-01-15T20:53:47.373Z,45.47
2018-01-15T20:56:14.990Z,45.13
2018-01-15T20:58:42.605Z,50.70
2018-01-15T21:01:10.225Z,61.07
2018-01-15T21:03:37.847Z,34.03
2018-01-15T21:06:05.575Z,63.23
2018-01-15T21:08:33.166Z,54.30
2018-01-15T21:11:00.787Z,40.27
2018-01-15T21:13:29.843Z,42.03
2018-01-15T21:15:57.443Z,54.73
2018-01-15T21:18:25.065Z,42.10
2018-01-15T21:20:52.699Z,63.07
2018-01-15T21:23:20.528Z,49.60
2018-01-15T21:25:48.376Z,42.50
2018-01-15T21:28:16.580Z,38.13
2018-01-15T21:30:44.376Z,40.27
2018-01-15T21:33:12.132Z,32.03
2018-01-15T21:35:39.745Z,30.73
2018-01-15T21:38:08.510Z,28.87
2018-01-15T21:40:36.545Z,20.80
2018-01-15T21:43:04.130Z,23.33
2018-01-15T21:45:32.413Z,23.60
2018-01-15T21:48:00.068Z,23.67
2018-01-15T21:50:28.173Z,28.70
2018-01-15T21:52:55.879Z,48.40
2018-01-15T21:55:23.822Z,36.57
2018-01-15T21:57:51.427Z,41.30
2018-01-15T22:00:19.134Z,35.37
2018-01-15T22:02:47.121Z,26.37
2018-01-15T22:05:14.707Z,29.47
2018-01-15T22:07:42.303Z,26.97
2018-01-15T22:12:59.930Z,64.47
2018-01-15T22:15:27.492Z,30.73
2018-01-15T22:17:55.054Z,34.10
2018-01-15T22:20:22.633Z,55.07
2018-01-15T22:22:50.216Z,32.63
2018-01-15T22:25:17.837Z,29.97
2018-01-15T22:27:45.404Z,46.20
2018-01-15T22:30:13.069Z,36.20
2018-01-15T22:32:40.683Z,37.37
2018-01-15T22:35:08.788Z,30.00
2018-01-15T22:37:36.481Z,28.70
2018-01-15T22:40:04.124Z,27.70
2018-01-15T22:42:31.978Z,40.37
2018-01-15T22:44:59.616Z,30.80
2018-01-15T22:47:27.475Z,29.30
2018-01-15T22:49:55.108Z,32.53
2018-01-15T22:52:22.721Z,33.70
2018-01-15T22:54:50.286Z,29.20
2018-01-15T22:57:17.888Z,22.73
2018-01-15T22:59:45.481Z,21.27
2018-01-15T23:02:13.365Z,27.77
2018-01-15T23:04:40.955Z,34.87
2018-01-15T23:07:09.722Z,38.83
2018-01-15T23:09:37.426Z,27.40
2018-01-15T23:12:05.129Z,27.03
2018-01-15T23:14:32.720Z,38.97
2018-01-15T23:17:00.385Z,41.07
2018-01-15T23:19:27.979Z,40.20
2018-01-15T23:21:55.586Z,39.87
2018-01-15T23:24:23.176Z,33.80
2018-01-15T23:26:50.853Z,35.97
2018-01-15T23:29:20.578Z,33.63
2018-01-15T23:31:48.216Z,25.90
2018-01-15T23:34:15.836Z,29.53
2018-01-15T23:36:45.664Z,33.53
2018-01-15T23:39:17.444Z,29.10
2018-01-15T23:41:45.228Z,23.40
2018-01-15T23:44:15.244Z,28.20
2018-01-15T23:46:42.928Z,22.60
2018-01-15T23:49:12.256Z,27.30
2018-01-15T23:51:40.761Z,23.30
2018-01-15T23:54:08.402Z,21.17
2018-01-15T23:56:36.224Z,27.73
2018-01-15T23:59:04.621Z,28.00
